Time,TemperatureF,DewpointF,PressureIn,WindDirection,WindDirectionDegrees,WindSpeedMPH,WindSpeedGustMPH,Humidity,HourlyPrecipIn,Conditions,Clouds,dailyrainin,SolarRadiationWatts/m^2,SoftwareType,DateUTC
2013-07-23 00:01:00,57.0,40.0,-100.00,NW,311,3.0,4.0,52,0.00,,,-99.99,0.000000,,2013-07-23 06:01:00,
2013-07-23 00:11:00,57.0,40.0,-100.00,NW,311,3.0,4.0,52,0.00,,,-99.99,0.000000,,2013-07-23 06:11:00,
2013-07-23 00:22:00,57.0,40.0,-100.00,NW,311,3.0,4.0,52,0.00,,,-99.99,0.000000,,2013-07-23 06:22:00,
2013-07-23 00:42:00,55.0,39.0,-100.00,WNW,300,2.0,3.0,55,0.00,,,0.00,0.000000,,2013-07-23 06:42:00,
2013-07-23 00:52:00,55.0,39.0,-100.00,WNW,300,2.0,3.0,55,0.00,,,0.00,0.000000,,2013-07-23 06:52:00,
2013-07-23 01:01:00,55.0,39.0,-100.00,WNW,300,2.0,3.0,55,0.00,,,0.00,0.000000,,2013-07-23 07:01:00,
2013-07-23 01:11:00,55.0,39.0,-100.00,WNW,300,2.0,3.0,55,0.00,,,0.00,0.000000,,2013-07-23 07:11:00,
2013-07-23 01:21:00,55.0,39.0,-100.00,WNW,300,2.0,3.0,55,0.00,,,0.00,0.000000,,2013-07-23 07:21:00,
2013-07-23 01:52:00,54.0,39.0,-100.00,WNW,301,3.0,3.0,56,0.00,,,0.00,0.000000,,2013-07-23 07:52:00,
2013-07-23 02:01:00,54.0,39.0,-100.00,WNW,301,3.0,3.0,56,0.00,,,0.00,0.000000,,2013-07-23 08:01:00,
2013-07-23 02:11:00,54.0,39.0,-100.00,WNW,301,3.0,3.0,56,0.00,,,0.00,0.000000,,2013-07-23 08:11:00,
2013-07-23 02:21:00,54.0,39.0,-100.00,WNW,301,3.0,3.0,56,0.00,,,0.00,0.000000,,2013-07-23 08:21:00,
2013-07-23 02:43:00,55.0,39.0,-100.00,WNW,297,2.0,3.0,55,0.00,,,0.00,0.000000,,2013-07-23 08:43:00,
2013-07-23 02:52:00,55.0,39.0,-100.00,WNW,297,2.0,3.0,55,0.00,,,0.00,0.000000,,2013-07-23 08:52:00,
2013-07-23 03:01:00,55.0,39.0,-100.00,WNW,297,2.0,3.0,55,0.00,,,0.00,0.000000,,2013-07-23 09:01:00,
2013-07-23 03:11:00,55.0,39.0,-100.00,WNW,297,2.0,3.0,55,0.00,,,0.00,0.000000,,2013-07-23 09:11:00,
2013-07-23 03:22:00,55.0,39.0,-100.00,WNW,297,2.0,3.0,55,0.00,,,0.00,0.000000,,2013-07-23 09:22:00,
2013-07-23 03:53:00,53.0,37.0,-100.00,West,265,2.0,3.0,54,0.00,,,0.00,0.000000,,2013-07-23 09:53:00,
2013-07-23 04:02:00,53.0,37.0,-100.00,West,265,2.0,3.0,54,0.00,,,0.00,0.000000,,2013-07-23 10:02:00,
2013-07-23 04:11:00,53.0,37.0,-100.00,West,265,2.0,3.0,54,0.00,,,0.00,0.000000,,2013-07-23 10:11:00,
2013-07-23 04:22:00,53.0,37.0,-100.00,West,265,2.0,3.0,54,0.00,,,0.00,0.000000,,2013-07-23 10:22:00,
2013-07-23 04:44:00,52.0,35.0,-100.00,WNW,294,3.0,3.0,53,0.00,,,0.00,0.000000,,2013-07-23 10:44:00,
2013-07-23 04:52:00,52.0,35.0,-100.00,WNW,294,3.0,3.0,53,0.00,,,0.00,0.000000,,2013-07-23 10:52:00,
2013-07-23 05:02:00,52.0,35.0,-100.00,WNW,294,3.0,3.0,53,0.00,,,0.00,0.000000,,2013-07-23 11:02:00,
2013-07-23 05:12:00,52.0,35.0,-100.00,WNW,294,3.0,3.0,53,0.00,,,0.00,0.000000,,2013-07-23 11:12:00,
2013-07-23 05:22:00,52.0,35.0,-100.00,WNW,294,3.0,3.0,53,0.00,,,0.00,0.000000,,2013-07-23 11:22:00,
2013-07-23 05:43:00,51.0,35.0,-100.00,WSW,258,2.0,3.0,55,0.00,,,0.00,0.000000,,2013-07-23 11:43:00,
2013-07-23 05:52:00,51.0,35.0,-100.00,WSW,258,2.0,3.0,55,0.00,,,0.00,0.000000,,2013-07-23 11:52:00,
2013-07-23 06:02:00,51.0,35.0,-100.00,WSW,258,2.0,3.0,55,0.00,,,0.00,0.000000,,2013-07-23 12:02:00,
2013-07-23 06:11:00,51.0,35.0,-100.00,WSW,258,2.0,3.0,55,0.00,,,0.00,0.000000,,2013-07-23 12:11:00,
2013-07-23 06:22:00,51.0,35.0,-100.00,WSW,258,2.0,3.0,55,0.00,,,0.00,0.000000,,2013-07-23 12:22:00,
2013-07-23 06:43:00,51.0,34.0,-100.00,WNW,284,3.0,3.0,52,0.00,,,0.00,5.000000,,2013-07-23 12:43:00,
2013-07-23 07:01:00,51.0,34.0,-100.00,WNW,284,3.0,3.0,52,0.00,,,0.00,5.000000,,2013-07-23 13:01:00,
2013-07-23 07:11:00,51.0,34.0,-100.00,WNW,284,3.0,3.0,52,0.00,,,0.00,5.000000,,2013-07-23 13:11:00,
2013-07-23 07:22:00,51.0,34.0,-100.00,WNW,284,3.0,3.0,52,0.00,,,0.00,5.000000,,2013-07-23 13:22:00,
2013-07-23 08:02:00,62.0,39.0,-100.00,SSE,148,1.0,3.0,42,0.00,,,0.00,200.000000,,2013-07-23 14:02:00,
2013-07-23 08:23:00,65.0,37.0,-100.00,SE,125,2.0,3.0,36,0.00,,,0.00,443.000000,,2013-07-23 14:23:00,
2013-07-23 08:44:00,65.0,37.0,-100.00,SE,125,2.0,3.0,36,0.00,,,0.00,443.000000,,2013-07-23 14:44:00,
2013-07-23 08:53:00,65.0,37.0,-100.00,SE,125,2.0,3.0,36,0.00,,,0.00,443.000000,,2013-07-23 14:53:00,
2013-07-23 09:03:00,65.0,37.0,-100.00,SE,125,2.0,3.0,36,0.00,,,0.00,443.000000,,2013-07-23 15:03:00,
2013-07-23 09:11:00,65.0,37.0,-100.00,SE,125,2.0,3.0,36,0.00,,,0.00,443.000000,,2013-07-23 15:11:00,
2013-07-23 09:43:00,72.0,39.0,-100.00,ESE,119,2.0,3.0,30,0.00,,,0.00,629.000000,,2013-07-23 15:43:00,
2013-07-23 09:52:00,72.0,39.0,-100.00,ESE,119,2.0,3.0,30,0.00,,,0.00,629.000000,,2013-07-23 15:52:00,
2013-07-23 10:01:00,72.0,39.0,-100.00,ESE,119,2.0,3.0,30,0.00,,,0.00,629.000000,,2013-07-23 16:01:00,
2013-07-23 10:12:00,72.0,39.0,-100.00,ESE,119,2.0,3.0,30,0.00,,,0.00,629.000000,,2013-07-23 16:12:00,
2013-07-23 10:22:00,72.0,39.0,-100.00,ESE,119,2.0,3.0,30,0.00,,,0.00,629.000000,,2013-07-23 16:22:00,
2013-07-23 10:43:00,75.0,34.0,-100.00,South,172,3.0,4.0,22,0.00,,,0.00,892.000000,,2013-07-23 16:43:00,
2013-07-23 10:52:00,75.0,34.0,-100.00,South,172,3.0,4.0,22,0.00,,,0.00,892.000000,,2013-07-23 16:52:00,
2013-07-23 11:02:00,75.0,34.0,-100.00,South,172,3.0,4.0,22,0.00,,,0.00,892.000000,,2013-07-23 17:02:00,
2013-07-23 11:11:00,75.0,34.0,-100.00,South,172,3.0,4.0,22,0.00,,,0.00,892.000000,,2013-07-23 17:11:00,
2013-07-23 11:21:00,75.0,34.0,-100.00,South,172,3.0,4.0,22,0.00,,,0.00,892.000000,,2013-07-23 17:21:00,
2013-07-23 11:23:00,78.0,30.0,-100.00,SE,131,3.0,5.0,17,0.00,,,0.00,1039.000000,,2013-07-23 17:23:00,
2013-07-23 11:42:00,78.0,30.0,-100.00,SE,131,3.0,5.0,17,0.00,,,0.00,1039.000000,,2013-07-23 17:42:00,
2013-07-23 11:56:00,78.0,30.0,-100.00,SE,131,3.0,5.0,17,0.00,,,0.00,1039.000000,,2013-07-23 17:56:00,
2013-07-23 12:03:00,78.0,30.0,-100.00,SE,131,3.0,5.0,17,0.00,,,0.00,1039.000000,,2013-07-23 18:03:00,
2013-07-23 12:12:00,78.0,30.0,-100.00,SE,131,3.0,5.0,17,0.00,,,0.00,1039.000000,,2013-07-23 18:12:00,
2013-07-23 12:23:00,81.0,26.0,-100.00,NNE,22,2.0,6.0,13,0.00,,,0.00,1153.000000,,2013-07-23 18:23:00,
2013-07-23 12:49:00,81.0,26.0,-100.00,NNE,22,2.0,6.0,13,0.00,,,0.00,1153.000000,,2013-07-23 18:49:00,
2013-07-23 12:57:00,81.0,26.0,-100.00,NNE,22,2.0,6.0,13,0.00,,,0.00,1153.000000,,2013-07-23 18:57:00,
2013-07-23 13:03:00,81.0,26.0,-100.00,NNE,22,2.0,6.0,13,0.00,,,0.00,1153.000000,,2013-07-23 19:03:00,
2013-07-23 13:14:00,81.0,26.0,-100.00,NNE,22,2.0,6.0,13,0.00,,,0.00,1153.000000,,2013-07-23 19:14:00,
2013-07-23 13:49:00,83.0,25.0,-100.00,SE,127,3.0,9.0,12,0.00,,,0.00,1191.000000,,2013-07-23 19:49:00,
2013-07-23 13:55:00,83.0,25.0,-100.00,SE,127,3.0,9.0,12,0.00,,,0.00,1191.000000,,2013-07-23 19:55:00,
2013-07-23 14:04:00,83.0,25.0,-100.00,SE,127,3.0,9.0,12,0.00,,,0.00,1191.000000,,2013-07-23 20:04:00,
2013-07-23 14:12:00,83.0,25.0,-100.00,SE,127,3.0,9.0,12,0.00,,,0.00,1191.000000,,2013-07-23 20:12:00,
2013-07-23 14:22:00,83.0,25.0,-100.00,SE,127,3.0,9.0,12,0.00,,,0.00,1191.000000,,2013-07-23 20:22:00,
2013-07-23 14:23:00,84.0,24.0,-100.00,SE,145,4.0,8.0,11,0.00,,,0.00,1140.000000,,2013-07-23 20:23:00,
2013-07-23 14:47:00,84.0,24.0,-100.00,SE,145,4.0,8.0,11,0.00,,,0.00,1140.000000,,2013-07-23 20:47:00,
2013-07-23 14:59:00,84.0,24.0,-100.00,SE,145,4.0,8.0,11,0.00,,,0.00,1140.000000,,2013-07-23 20:59:00,
2013-07-23 15:13:00,84.0,24.0,-100.00,SE,145,4.0,8.0,11,0.00,,,0.00,1140.000000,,2013-07-23 21:13:00,
2013-07-23 15:23:00,82.0,24.0,-100.00,ESE,103,3.0,7.0,12,0.00,,,0.00,827.000000,,2013-07-23 21:23:00,
2013-07-23 15:48:00,82.0,24.0,-100.00,ESE,103,3.0,7.0,12,0.00,,,0.00,827.000000,,2013-07-23 21:48:00,
2013-07-23 16:05:00,82.0,24.0,-100.00,ESE,103,3.0,7.0,12,0.00,,,0.00,827.000000,,2013-07-23 22:05:00,
2013-07-23 16:12:00,82.0,24.0,-100.00,ESE,103,3.0,7.0,12,0.00,,,0.00,827.000000,,2013-07-23 22:12:00,
2013-07-23 16:23:00,81.0,27.0,-100.00,SE,138,3.0,4.0,14,0.00,,,0.00,389.000000,,2013-07-23 22:23:00,
2013-07-23 16:47:00,81.0,27.0,-100.00,SE,138,3.0,4.0,14,0.00,,,0.00,389.000000,,2013-07-23 22:47:00,
2013-07-23 17:00:00,81.0,27.0,-100.00,SE,138,3.0,4.0,14,0.00,,,0.00,389.000000,,2013-07-23 23:00:00,
2013-07-23 17:12:00,81.0,27.0,-100.00,SE,138,3.0,4.0,14,0.00,,,0.00,389.000000,,2013-07-23 23:12:00,
2013-07-23 17:46:00,80.0,28.0,-100.00,WSW,244,1.0,4.0,15,0.00,,,0.00,282.000000,,2013-07-23 23:46:00,
2013-07-23 17:58:00,80.0,28.0,-100.00,WSW,244,1.0,4.0,15,0.00,,,0.00,282.000000,,2013-07-23 23:58:00,
2013-07-23 18:07:00,80.0,28.0,-100.00,WSW,244,1.0,4.0,15,0.00,,,0.00,282.000000,,2013-07-24 00:07:00,
2013-07-23 18:13:00,80.0,28.0,-100.00,WSW,244,1.0,4.0,15,0.00,,,0.00,282.000000,,2013-07-24 00:13:00,
2013-07-23 18:23:00,76.0,29.0,-100.00,SSE,166,3.0,9.0,18,0.00,,,0.00,180.000000,,2013-07-24 00:23:00,
2013-07-23 18:50:00,76.0,29.0,-100.00,SSE,166,3.0,9.0,18,0.00,,,0.00,180.000000,,2013-07-24 00:50:00,
2013-07-23 18:58:00,76.0,29.0,-100.00,SSE,166,3.0,9.0,18,0.00,,,0.00,180.000000,,2013-07-24 00:58:00,
2013-07-23 19:04:00,76.0,29.0,-100.00,SSE,166,3.0,9.0,18,0.00,,,0.00,180.000000,,2013-07-24 01:04:00,
2013-07-23 19:13:00,76.0,29.0,-100.00,SSE,166,3.0,9.0,18,0.00,,,0.00,180.000000,,2013-07-24 01:13:00,
2013-07-23 19:47:00,75.0,27.0,-100.00,SW,217,3.0,6.0,17,0.00,,,0.00,125.000000,,2013-07-24 01:47:00,
2013-07-23 20:00:00,75.0,27.0,-100.00,SW,217,3.0,6.0,17,0.00,,,0.00,125.000000,,2013-07-24 02:00:00,
2013-07-23 20:15:00,75.0,27.0,-100.00,SW,217,3.0,6.0,17,0.00,,,0.00,125.000000,,2013-07-24 02:15:00,
2013-07-23 20:23:00,71.0,31.0,-100.00,South,173,2.0,5.0,23,0.00,,,0.00,20.000000,,2013-07-24 02:23:00,
2013-07-23 20:56:00,71.0,31.0,-100.00,South,173,2.0,5.0,23,0.00,,,0.00,20.000000,,2013-07-24 02:56:00,
2013-07-23 21:03:00,71.0,31.0,-100.00,South,173,2.0,5.0,23,0.00,,,0.00,20.000000,,2013-07-24 03:03:00,
2013-07-23 21:13:00,71.0,31.0,-100.00,South,173,2.0,5.0,23,0.00,,,0.00,20.000000,,2013-07-24 03:13:00,
2013-07-23 21:46:00,65.0,36.0,-100.00,NW,320,2.0,3.0,34,0.00,,,0.00,0.000000,,2013-07-24 03:46:00,
2013-07-23 21:57:00,65.0,36.0,-100.00,NW,320,2.0,3.0,34,0.00,,,0.00,0.000000,,2013-07-24 03:57:00,
2013-07-23 22:01:00,65.0,36.0,-100.00,NW,320,2.0,3.0,34,0.00,,,0.00,0.000000,,2013-07-24 04:01:00,
2013-07-23 22:11:00,65.0,36.0,-100.00,NW,320,2.0,3.0,34,0.00,,,0.00,0.000000,,2013-07-24 04:11:00,
2013-07-23 22:22:00,65.0,36.0,-100.00,NW,320,2.0,3.0,34,0.00,,,0.00,0.000000,,2013-07-24 04:22:00,
2013-07-23 22:43:00,68.0,36.0,-100.00,South,179,2.0,6.0,31,0.00,,,0.00,0.000000,,2013-07-24 04:43:00,
2013-07-23 22:53:00,68.0,36.0,-100.00,South,179,2.0,6.0,31,0.00,,,0.00,0.000000,,2013-07-24 04:53:00,
2013-07-23 23:02:00,68.0,36.0,-100.00,South,179,2.0,6.0,31,0.00,,,0.00,0.000000,,2013-07-24 05:02:00,
2013-07-23 23:11:00,68.0,36.0,-100.00,South,179,2.0,6.0,31,0.00,,,0.00,0.000000,,2013-07-24 05:11:00,
2013-07-23 23:22:00,68.0,36.0,-100.00,South,179,2.0,6.0,31,0.00,,,0.00,0.000000,,2013-07-24 05:22:00,
2013-07-23 23:23:00,61.0,39.0,-100.00,NNW,334,2.0,3.0,44,0.00,,,0.00,0.000000,,2013-07-24 05:23:00,
2013-07-23 23:43:00,61.0,39.0,-100.00,NNW,334,2.0,3.0,44,0.00,,,0.00,0.000000,,2013-07-24 05:43:00,
2013-07-23 23:52:00,61.0,39.0,-100.00,NNW,334,2.0,3.0,44,0.00,,,0.00,0.000000,,2013-07-24 05:52:00,